Time;durP1;ratioP1;P1;durP2;ratioP2;P2;SDS_P1;SDS_P2;PMS_P1;PMS_P2;Temp;Humidity;BMP_temperature;BMP_pressure;BME280_temperature;BME280_humidity;BME280_pressure;Samples;Min_cycle;Max_cycle;Signal;HPM_P1;HPM_P2
2022/04/24 00:00:01;;;;;;;6.20;5.50;;;9.80;99.90;;;;;;5036169;28;20654;-71
2022/04/24 00:02:27;;;;;;;5.80;5.20;;;9.80;99.90;;;;;;5035786;28;20176;-71
2022/04/24 00:04:53;;;;;;;9.73;6.53;;;9.80;99.90;;;;;;5035333;28;20204;-71
2022/04/24 00:07:19;;;;;;;10.13;7.20;;;9.80;99.90;;;;;;5034586;28;20177;-70
2022/04/24 00:09:44;;;;;;;12.33;8.43;;;9.80;99.90;;;;;;5035874;28;20201;-70
2022/04/24 00:12:15;;;;;;;8.20;6.80;;;9.90;99.90;;;;;;5035780;28;20257;-70
2022/04/24 00:14:42;;;;;;;7.65;6.35;;;9.90;99.90;;;;;;5034043;28;20559;-69
2022/04/24 00:17:08;;;;;;;6.65;5.78;;;9.90;99.90;;;;;;5035220;28;20190;-70
2022/04/24 00:19:34;;;;;;;6.67;6.00;;;9.90;99.90;;;;;;5035773;28;20221;-72
2022/04/24 00:21:59;;;;;;;8.50;6.17;;;9.90;99.90;;;;;;5035806;28;20648;-71
2022/04/24 00:24:25;;;;;;;7.03;6.33;;;10.00;99.90;;;;;;5035283;28;20636;-70
2022/04/24 00:26:52;;;;;;;7.77;6.93;;;10.10;99.90;;;;;;5035490;28;20265;-71
2022/04/24 00:29:17;;;;;;;8.80;5.35;;;10.10;99.90;;;;;;5035716;28;20408;-71
2022/04/24 00:31:43;;;;;;;10.87;6.63;;;10.20;99.90;;;;;;5035276;28;20174;-70
2022/04/24 00:34:09;;;;;;;7.90;6.50;;;10.20;99.90;;;;;;5035049;28;20181;-71
2022/04/24 00:36:34;;;;;;;7.93;7.13;;;10.30;99.90;;;;;;5035557;28;20205;-69
2022/04/24 00:39:00;;;;;;;7.93;6.10;;;10.40;99.90;;;;;;5035747;28;20193;-68
2022/04/24 00:41:26;;;;;;;8.07;7.30;;;10.40;99.90;;;;;;5034209;28;20173;-72
2022/04/24 00:43:52;;;;;;;5.23;4.60;;;10.40;99.90;;;;;;5035031;28;20616;-71
2022/04/24 00:46:22;;;;;;;7.07;6.28;;;10.40;99.90;;;;;;5034934;28;20209;-70
2022/04/24 00:48:48;;;;;;;9.02;6.10;;;10.40;99.90;;;;;;5035153;28;20506;-70
2022/04/24 00:51:13;;;;;;;6.97;6.10;;;10.50;99.90;;;;;;5035216;28;20181;-71
2022/04/24 00:53:39;;;;;;;6.13;5.33;;;10.40;99.90;;;;;;5034741;28;20510;-70
2022/04/24 00:56:08;;;;;;;8.37;7.27;;;10.40;99.90;;;;;;5034983;28;20221;-70
2022/04/24 00:58:35;;;;;;;8.57;6.40;;;10.40;99.90;;;;;;5035057;28;20593;-69
2022/04/24 01:01:00;;;;;;;9.90;6.72;;;10.40;99.90;;;;;;5034755;28;20470;-70
2022/04/24 01:03:26;;;;;;;6.07;5.30;;;10.40;99.90;;;;;;5034664;28;20189;-70
2022/04/24 01:05:53;;;;;;;7.17;6.40;;;10.40;99.90;;;;;;5034851;28;20224;-72
2022/04/24 01:08:18;;;;;;;10.63;7.28;;;10.40;99.90;;;;;;5034878;28;20479;-70
2022/04/24 01:10:44;;;;;;;10.87;7.67;;;10.50;99.90;;;;;;5034843;28;20174;-70
2022/04/24 01:13:10;;;;;;;11.73;7.17;;;10.50;99.90;;;;;;5034370;28;20189;-71
2022/04/24 01:15:36;;;;;;;10.43;7.63;;;10.50;99.90;;;;;;5034374;28;20197;-70
2022/04/24 01:18:01;;;;;;;6.83;5.30;;;10.60;99.90;;;;;;5034302;28;20460;-72
2022/04/24 01:20:27;;;;;;;7.67;6.90;;;10.60;99.90;;;;;;5033278;28;20781;-70
2022/04/24 01:22:53;;;;;;;6.88;5.55;;;10.60;99.90;;;;;;5034786;28;20238;-70
2022/04/24 01:25:19;;;;;;;10.93;8.00;;;10.70;99.90;;;;;;5034255;28;20202;-70
2022/04/24 01:27:44;;;;;;;8.00;6.57;;;10.70;99.90;;;;;;5034106;28;20566;-71
2022/04/24 01:30:10;;;;;;;5.70;5.20;;;10.70;99.90;;;;;;5034033;28;20648;-70
2022/04/24 01:32:38;;;;;;;9.40;5.57;;;10.80;99.90;;;;;;5034327;28;20254;-70
2022/04/24 01:35:05;;;;;;;6.78;4.88;;;10.80;99.90;;;;;;5033866;28;20186;-69
2022/04/24 01:37:30;;;;;;;6.93;5.95;;;10.80;99.90;;;;;;5034376;28;20186;-69
2022/04/24 01:39:56;;;;;;;7.27;5.17;;;10.90;99.90;;;;;;5034321;28;20181;-69
2022/04/24 01:42:22;;;;;;;6.33;5.33;;;10.90;99.90;;;;;;5034224;28;20538;-70
2022/04/24 01:44:47;;;;;;;6.97;5.80;;;10.90;99.90;;;;;;5033306;28;20863;-70
2022/04/24 01:47:13;;;;;;;5.10;4.33;;;10.90;99.90;;;;;;5034117;28;20581;-71
2022/04/24 01:49:39;;;;;;;6.77;5.10;;;10.90;99.90;;;;;;5034126;28;20174;-71
2022/04/24 01:52:06;;;;;;;6.80;6.20;;;11.00;99.90;;;;;;5033904;28;20174;-71
2022/04/24 01:54:32;;;;;;;6.88;6.18;;;11.00;99.90;;;;;;5033684;28;20178;-69
2022/04/24 01:56:58;;;;;;;8.90;5.30;;;11.00;99.90;;;;;;5033823;28;20209;-71
2022/04/24 01:59:24;;;;;;;7.93;6.13;;;11.00;99.90;;;;;;5033864;28;20416;-71
2022/04/24 02:01:50;;;;;;;6.37;5.77;;;11.00;99.90;;;;;;5033960;28;20220;-70
2022/04/24 02:04:18;;;;;;;6.63;5.47;;;11.00;99.90;;;;;;5033434;28;20436;-72
2022/04/24 02:06:44;;;;;;;6.05;5.10;;;11.00;99.90;;;;;;5033863;28;20519;-67
2022/04/24 02:09:10;;;;;;;8.50;6.10;;;11.00;99.90;;;;;;5033874;28;20181;-70
2022/04/24 02:11:35;;;;;;;7.07;5.47;;;11.00;99.90;;;;;;5034109;28;20166;-70
2022/04/24 02:14:01;;;;;;;9.90;6.70;;;11.00;99.90;;;;;;5033160;28;20525;-69
2022/04/24 02:16:27;;;;;;;8.87;5.97;;;10.90;99.90;;;;;;5033598;28;20218;-71
2022/04/24 02:18:53;;;;;;;6.70;5.43;;;10.90;99.90;;;;;;5033598;28;20193;-69
2022/04/24 02:21:19;;;;;;;7.87;6.50;;;10.90;99.90;;;;;;5033673;28;20170;-70
2022/04/24 02:23:44;;;;;;;6.55;5.95;;;10.90;99.90;;;;;;5033147;28;20189;-71
2022/04/24 02:26:10;;;;;;;14.87;7.23;;;10.80;99.90;;;;;;5033481;28;20194;-69
2022/04/24 02:28:36;;;;;;;11.47;6.87;;;10.80;99.90;;;;;;5033389;28;20174;-69
2022/04/24 02:31:02;;;;;;;9.67;8.00;;;10.80;99.90;;;;;;5033534;28;20437;-69
2022/04/24 02:33:28;;;;;;;8.68;5.13;;;10.80;99.90;;;;;;5033052;28;20205;-69
2022/04/24 02:35:53;;;;;;;7.37;6.00;;;10.80;99.90;;;;;;5033246;28;20236;-71
2022/04/24 02:38:19;;;;;;;7.67;5.97;;;10.80;99.90;;;;;;5033343;28;20198;-71
2022/04/24 02:40:45;;;;;;;8.57;5.43;;;10.80;99.90;;;;;;5033297;28;20174;-70
2022/04/24 02:43:10;;;;;;;7.10;6.40;;;10.70;99.90;;;;;;5032909;28;20249;-72
2022/04/24 02:45:36;;;;;;;14.97;8.23;;;10.70;99.90;;;;;;5032963;28;20293;-71
2022/04/24 02:48:03;;;;;;;9.37;6.53;;;10.60;99.90;;;;;;5033598;28;20648;-70
2022/04/24 02:50:28;;;;;;;9.88;6.65;;;10.70;99.90;;;;;;5033222;28;20220;-70
2022/04/24 02:52:56;;;;;;;9.87;8.20;;;10.70;99.90;;;;;;5033033;28;20170;-70
2022/04/24 02:55:23;;;;;;;10.10;6.80;;;10.60;99.90;;;;;;5032962;28;20549;-70
2022/04/24 02:57:49;;;;;;;8.77;6.57;;;10.60;99.90;;;;;;5033043;28;20228;-72
2022/04/24 03:00:19;;;;;;;10.82;6.93;;;10.50;99.90;;;;;;5032726;28;20192;-70
2022/04/24 03:02:46;;;;;;;7.93;7.00;;;10.60;99.90;;;;;;5033154;28;20511;-71
2022/04/24 03:05:14;;;;;;;9.27;8.27;;;10.50;99.90;;;;;;5032713;28;20182;-70
2022/04/24 03:07:40;;;;;;;11.50;6.97;;;10.50;99.90;;;;;;5031644;28;20195;-71
2022/04/24 03:10:08;;;;;;;7.97;5.43;;;10.50;99.90;;;;;;5032775;28;20174;-72
2022/04/24 03:12:34;;;;;;;9.40;7.63;;;10.40;99.90;;;;;;5031485;28;20181;-71
2022/04/24 03:15:00;;;;;;;9.98;7.38;;;10.40;99.90;;;;;;5032225;28;20539;-70
2022/04/24 03:17:26;;;;;;;10.67;8.23;;;10.30;99.90;;;;;;5032911;28;20281;-70
2022/04/24 03:19:52;;;;;;;6.85;6.15;;;10.30;99.90;;;;;;5032964;28;20161;-71
2022/04/24 03:22:18;;;;;;;12.67;8.10;;;10.30;99.90;;;;;;5032968;28;20228;-70
2022/04/24 03:24:45;;;;;;;9.53;6.43;;;10.30;99.90;;;;;;5031023;28;20229;-71
2022/04/24 03:27:11;;;;;;;11.05;7.30;;;10.30;99.90;;;;;;5034139;28;20885;-71
2022/04/24 03:29:37;;;;;;;9.43;6.97;;;10.20;99.90;;;;;;5032591;28;20174;-71
2022/04/24 03:32:03;;;;;;;8.67;7.73;;;10.20;99.90;;;;;;5032895;28;20178;-71
2022/04/24 03:34:28;;;;;;;9.73;7.47;;;10.20;99.90;;;;;;5032739;28;20201;-71
2022/04/24 03:36:54;;;;;;;11.07;8.20;;;10.20;99.90;;;;;;5031263;28;20506;-71
2022/04/24 03:39:20;;;;;;;8.93;7.27;;;10.20;99.90;;;;;;5032792;28;20162;-71
2022/04/24 03:41:45;;;;;;;7.70;5.83;;;10.20;99.90;;;;;;5032761;28;20498;-71
2022/04/24 03:44:11;;;;;;;11.40;7.90;;;10.20;99.90;;;;;;5032176;28;20180;-71
2022/04/24 03:46:37;;;;;;;9.10;7.80;;;10.10;99.90;;;;;;5031618;28;20323;-71
2022/04/24 03:49:02;;;;;;;7.60;6.87;;;10.20;99.90;;;;;;5032404;28;20174;-71
2022/04/24 03:51:28;;;;;;;8.27;6.90;;;10.20;99.90;;;;;;5033548;28;20513;-72
2022/04/24 03:53:53;;;;;;;7.47;6.60;;;10.20;99.90;;;;;;5035983;28;20170;-71
2022/04/24 03:56:19;;;;;;;10.37;7.77;;;10.20;99.90;;;;;;5036128;28;20190;-72
2022/04/24 03:58:45;;;;;;;11.77;7.50;;;10.10;99.90;;;;;;5036112;28;20202;-70
2022/04/24 04:01:12;;;;;;;9.97;6.90;;;10.10;99.90;;;;;;5034939;28;20651;-71
2022/04/24 04:03:38;;;;;;;9.70;6.95;;;10.10;99.90;;;;;;5035628;28;20557;-71
2022/04/24 04:06:03;;;;;;;9.40;6.80;;;10.10;99.90;;;;;;5035917;28;20248;-69
2022/04/24 04:08:29;;;;;;;9.83;8.37;;;10.10;99.90;;;;;;5036251;28;20576;-70
2022/04/24 04:10:55;;;;;;;8.00;4.90;;;10.00;99.90;;;;;;5035084;28;20208;-74
2022/04/24 04:13:20;;;;;;;9.80;6.87;;;10.00;99.90;;;;;;5035517;28;20587;-72
2022/04/24 04:15:46;;;;;;;8.87;6.70;;;10.00;99.90;;;;;;5036043;28;20189;-70
2022/04/24 04:18:12;;;;;;;8.60;6.23;;;10.00;99.90;;;;;;5035802;28;20213;-71
2022/04/24 04:20:37;;;;;;;7.70;6.00;;;10.00;99.90;;;;;;5035623;28;20652;-71
2022/04/24 04:23:03;;;;;;;8.37;6.93;;;10.00;99.90;;;;;;5034475;28;20256;-71
2022/04/24 04:25:29;;;;;;;8.60;7.70;;;10.00;99.90;;;;;;5035376;28;20194;-72
2022/04/24 04:27:55;;;;;;;8.85;7.95;;;10.00;99.90;;;;;;5035555;28;20181;-70
2022/04/24 04:30:21;;;;;;;10.70;6.60;;;9.90;99.90;;;;;;5035896;28;20166;-71
2022/04/24 04:32:48;;;;;;;8.90;5.63;;;9.90;99.90;;;;;;5035591;28;20259;-70
2022/04/24 04:35:14;;;;;;;8.95;7.05;;;9.90;99.90;;;;;;5034998;28;20221;-71
2022/04/24 04:37:39;;;;;;;8.70;7.50;;;9.90;99.90;;;;;;5035509;28;20275;-71
2022/04/24 04:40:06;;;;;;;6.77;6.07;;;9.90;99.90;;;;;;5035413;28;20412;-71
2022/04/24 04:42:32;;;;;;;12.52;8.05;;;9.90;99.90;;;;;;5035303;28;20427;-71
2022/04/24 04:45:00;;;;;;;13.27;7.40;;;9.90;99.90;;;;;;5034877;28;20186;-70
2022/04/24 04:47:27;;;;;;;10.48;8.60;;;10.00;99.90;;;;;;5035151;28;20655;-70
2022/04/24 04:49:53;;;;;;;10.02;8.35;;;10.00;99.90;;;;;;5034995;28;20170;-71
2022/04/24 04:52:19;;;;;;;17.98;9.27;;;10.00;99.90;;;;;;5035252;28;20163;-69
2022/04/24 04:54:45;;;;;;;6.60;5.83;;;10.00;99.90;;;;;;5034718;28;20170;-69
2022/04/24 04:57:11;;;;;;;7.30;5.23;;;10.00;99.90;;;;;;5035307;28;20510;-70
2022/04/24 04:59:36;;;;;;;3.37;3.07;;;9.90;99.90;;;;;;5035224;28;20569;-73
2022/04/24 05:02:02;;;;;;;3.67;2.77;;;9.80;99.90;;;;;;5034957;28;20245;-70
2022/04/24 05:04:28;;;;;;;2.80;2.40;;;9.80;99.90;;;;;;5033561;28;20650;-69
2022/04/24 05:06:53;;;;;;;1.70;1.60;;;9.70;99.90;;;;;;5034655;28;20472;-71
2022/04/24 05:09:19;;;;;;;4.37;2.43;;;9.50;99.90;;;;;;5034795;28;20170;-69
2022/04/24 05:11:44;;;;;;;3.50;1.50;;;9.50;99.90;;;;;;5033553;28;20165;-71
2022/04/24 05:14:10;;;;;;;1.40;1.30;;;9.40;99.90;;;;;;5030280;28;20241;-71
2022/04/24 05:16:35;;;;;;;1.23;1.23;;;9.30;99.90;;;;;;5034592;28;20193;-69
2022/04/24 05:19:03;;;;;;;1.70;1.40;;;9.30;99.90;;;;;;5034723;28;20312;-69
2022/04/24 05:21:28;;;;;;;0.82;0.82;;;9.30;99.90;;;;;;5033779;28;20185;-70
2022/04/24 05:23:54;;;;;;;1.07;1.07;;;9.20;99.90;;;;;;5017814;28;20171;-69
2022/04/24 05:26:20;;;;;;;1.77;1.07;;;9.20;99.90;;;;;;5013626;28;20680;-70
2022/04/24 05:28:45;;;;;;;0.70;0.60;;;9.10;99.90;;;;;;5014934;28;20177;-69
2022/04/24 05:31:11;;;;;;;0.70;0.53;;;9.10;99.90;;;;;;5016435;28;20413;-69
2022/04/24 05:33:37;;;;;;;0.87;0.77;;;9.10;99.90;;;;;;5034474;28;20196;-70
2022/04/24 05:36:07;;;;;;;0.53;0.53;;;9.10;99.90;;;;;;5033156;28;20444;-70
2022/04/24 05:38:34;;;;;;;0.50;0.50;;;9.00;99.90;;;;;;5034468;28;20494;-69
2022/04/24 05:41:00;;;;;;;0.30;0.30;;;9.00;99.90;;;;;;5034304;28;20246;-70
2022/04/24 05:43:25;;;;;;;0.40;0.40;;;9.00;99.90;;;;;;5033722;28;20191;-70
2022/04/24 05:45:51;;;;;;;0.97;0.90;;;8.90;99.90;;;;;;5034221;28;20197;-70
2022/04/24 05:48:18;;;;;;;0.90;0.60;;;8.90;99.90;;;;;;5034016;28;20537;-69
2022/04/24 05:50:45;;;;;;;0.93;0.50;;;8.80;99.90;;;;;;5038652;28;20581;-70
2022/04/24 05:53:10;;;;;;;0.40;0.40;;;8.80;99.90;;;;;;5043044;28;20178;-69
2022/04/24 05:55:36;;;;;;;0.33;0.33;;;8.70;99.90;;;;;;5034441;28;20209;-69
2022/04/24 05:58:02;;;;;;;0.33;0.33;;;8.70;99.90;;;;;;5030165;28;20684;-68
2022/04/24 06:00:27;;;;;;;0.33;0.33;;;8.60;99.90;;;;;;5014098;28;20189;-69
2022/04/24 06:02:53;;;;;;;0.50;0.50;;;8.60;99.90;;;;;;5014005;28;20185;-68
2022/04/24 06:05:19;;;;;;;0.40;0.40;;;8.60;99.90;;;;;;5013701;28;20197;-69
2022/04/24 06:07:44;;;;;;;0.30;0.30;;;8.50;99.90;;;;;;5030086;28;20181;-69
2022/04/24 06:10:11;;;;;;;0.40;0.40;;;8.50;99.90;;;;;;5034078;28;20643;-70
2022/04/24 06:12:47;;;;;;;0.45;0.45;;;8.50;99.90;;;;;;5030872;28;20633;-71
2022/04/24 06:15:15;;;;;;;0.40;0.40;;;8.50;99.90;;;;;;5029550;28;20275;-71
2022/04/24 06:17:46;;;;;;;0.68;0.40;;;8.50;99.90;;;;;;5028136;28;20198;-69
2022/04/24 06:20:13;;;;;;;0.43;0.43;;;8.50;99.90;;;;;;5027739;28;20178;-71
2022/04/24 06:22:53;;;;;;;0.50;0.50;;;8.50;99.90;;;;;;5033635;28;20173;-68
2022/04/24 06:25:24;;;;;;;0.30;0.30;;;8.50;99.90;;;;;;5032623;28;20232;-68
2022/04/24 06:27:51;;;;;;;0.30;0.30;;;8.50;99.90;;;;;;5017535;28;20180;-73
2022/04/24 06:30:18;;;;;;;0.50;0.50;;;8.50;99.90;;;;;;5033040;28;20252;-71
2022/04/24 06:32:44;;;;;;;0.32;0.32;;;8.50;99.90;;;;;;5032704;28;20189;-70
2022/04/24 06:35:14;;;;;;;0.40;0.40;;;8.40;99.90;;;;;;5032575;28;20200;-71
2022/04/24 06:37:42;;;;;;;1.90;0.50;;;8.40;99.90;;;;;;5031937;28;20628;-69
2022/04/24 06:40:10;;;;;;;1.15;1.05;;;8.40;99.90;;;;;;5030925;28;20177;-70
2022/04/24 06:42:50;;;;;;;1.65;1.55;;;8.40;99.90;;;;;;5033094;28;20227;-69
2022/04/24 06:45:17;;;;;;;0.52;0.52;;;8.40;99.90;;;;;;5036159;28;20220;-70
2022/04/24 06:47:45;;;;;;;0.60;0.60;;;8.40;99.90;;;;;;5033907;28;20268;-68
2022/04/24 06:50:11;;;;;;;0.75;0.75;;;8.40;99.90;;;;;;5030936;28;20553;-69
2022/04/24 06:52:36;;;;;;;0.60;0.60;;;8.50;99.90;;;;;;5032755;28;20185;-69
2022/04/24 06:55:04;;;;;;;0.30;0.30;;;8.50;99.90;;;;;;5032478;28;20530;-69
2022/04/24 06:57:29;;;;;;;2.25;0.55;;;8.50;99.90;;;;;;5032249;28;20283;-71
2022/04/24 06:59:55;;;;;;;0.73;0.30;;;8.50;99.90;;;;;;5032712;28;20641;-72
2022/04/24 07:02:20;;;;;;;0.30;0.30;;;8.50;99.90;;;;;;5032810;28;20174;-73
2022/04/24 07:04:46;;;;;;;0.50;0.43;;;8.50;99.90;;;;;;5032161;28;20195;-71
2022/04/24 07:07:12;;;;;;;0.33;0.30;;;8.50;99.90;;;;;;5032788;28;20182;-72
2022/04/24 07:09:38;;;;;;;0.40;0.40;;;8.60;99.90;;;;;;5032782;28;20180;-70
2022/04/24 07:12:04;;;;;;;0.80;0.30;;;8.60;99.90;;;;;;5032371;28;20180;-72
2022/04/24 07:14:29;;;;;;;0.40;0.40;;;8.60;99.90;;;;;;5031973;28;20660;-70
2022/04/24 07:16:55;;;;;;;0.50;0.50;;;8.70;99.90;;;;;;5032049;28;20448;-70
2022/04/24 07:19:21;;;;;;;0.40;0.40;;;8.70;99.90;;;;;;5032478;28;20213;-71
2022/04/24 07:21:48;;;;;;;0.40;0.40;;;8.80;99.90;;;;;;5032276;28;20644;-71
2022/04/24 07:24:14;;;;;;;1.65;1.27;;;8.70;99.90;;;;;;5012601;28;20261;-70
2022/04/24 07:26:39;;;;;;;0.30;0.30;;;8.70;99.90;;;;;;5026256;28;20285;-70
2022/04/24 07:29:05;;;;;;;0.40;0.40;;;8.70;99.90;;;;;;5035656;28;20178;-69
2022/04/24 07:31:30;;;;;;;0.50;0.50;;;8.80;99.90;;;;;;5035965;28;20178;-71
2022/04/24 07:33:56;;;;;;;1.13;0.60;;;8.80;99.90;;;;;;5036075;28;20462;-73
2022/04/24 07:36:22;;;;;;;0.50;0.30;;;8.80;99.90;;;;;;5034332;28;20913;-68
2022/04/24 07:38:50;;;;;;;0.47;0.47;;;8.80;99.90;;;;;;5036254;28;20448;-75
2022/04/24 07:41:16;;;;;;;0.40;0.30;;;8.80;99.90;;;;;;5035799;28;20174;-69
2022/04/24 07:43:48;;;;;;;0.45;0.45;;;8.90;99.90;;;;;;5035773;28;20228;-71
2022/04/24 07:46:17;;;;;;;0.40;0.40;;;8.80;99.90;;;;;;5036549;28;20271;-73
2022/04/24 07:48:42;;;;;;;0.30;0.30;;;8.90;99.90;;;;;;5036336;28;20171;-74
2022/04/24 07:51:08;;;;;;;0.60;0.60;;;8.90;99.90;;;;;;5036273;28;20177;-70
2022/04/24 07:53:34;;;;;;;0.47;0.47;;;8.90;99.90;;;;;;5035182;28;20238;-72
2022/04/24 07:56:00;;;;;;;0.63;0.60;;;9.00;99.90;;;;;;5035831;28;20937;-70
2022/04/24 07:58:25;;;;;;;0.33;0.33;;;9.00;99.90;;;;;;5036107;28;20209;-73
2022/04/24 08:00:51;;;;;;;0.57;0.40;;;9.00;99.90;;;;;;5035479;28;20173;-68
2022/04/24 08:03:19;;;;;;;0.60;0.50;;;9.00;99.90;;;;;;5035052;28;20186;-71
2022/04/24 08:05:50;;;;;;;0.60;0.60;;;8.90;99.90;;;;;;5035674;28;20715;-71
2022/04/24 08:08:18;;;;;;;0.80;0.65;;;8.90;99.90;;;;;;5034671;28;20263;-70
2022/04/24 08:10:47;;;;;;;0.30;0.30;;;9.00;99.90;;;;;;5035310;28;20204;-70
2022/04/24 08:13:13;;;;;;;0.50;0.40;;;9.00;99.90;;;;;;5035092;28;20252;-69
2022/04/24 08:15:39;;;;;;;0.53;0.53;;;9.10;99.90;;;;;;5033661;28;20359;-71
2022/04/24 08:18:06;;;;;;;0.50;0.50;;;9.10;99.90;;;;;;5015777;28;20190;-70
2022/04/24 08:20:32;;;;;;;0.63;0.63;;;9.10;99.90;;;;;;5021975;28;20625;-68
2022/04/24 08:22:59;;;;;;;0.70;0.70;;;9.10;99.90;;;;;;5033942;28;20171;-68
2022/04/24 08:25:26;;;;;;;1.05;0.40;;;9.10;99.90;;;;;;5023534;28;20584;-71
2022/04/24 08:27:54;;;;;;;0.50;0.50;;;9.10;99.90;;;;;;5035249;28;20170;-71
2022/04/24 08:30:21;;;;;;;0.50;0.50;;;9.10;99.90;;;;;;5035092;28;20170;-69
2022/04/24 08:32:48;;;;;;;9.50;4.85;;;9.10;99.90;;;;;;5035154;28;20166;-70
2022/04/24 08:35:16;;;;;;;0.65;0.60;;;9.10;99.90;;;;;;5034493;28;20255;-68
2022/04/24 08:37:42;;;;;;;0.40;0.40;;;9.10;99.90;;;;;;5033856;28;20568;-66
2022/04/24 08:40:10;;;;;;;0.60;0.60;;;9.10;99.90;;;;;;5035012;28;20182;-66
2022/04/24 08:42:36;;;;;;;0.75;0.68;;;9.10;99.90;;;;;;5034941;28;20503;-68
2022/04/24 08:45:04;;;;;;;0.40;0.40;;;9.10;99.90;;;;;;5029643;28;20197;-67
2022/04/24 08:47:30;;;;;;;0.50;0.50;;;9.20;99.90;;;;;;5036678;28;20922;-68
2022/04/24 08:49:59;;;;;;;0.43;0.43;;;9.20;99.90;;;;;;5033227;28;20190;-67
2022/04/24 08:52:27;;;;;;;0.88;0.47;;;9.20;99.90;;;;;;5036221;28;20205;-73
2022/04/24 08:54:53;;;;;;;0.50;0.50;;;9.30;99.90;;;;;;5032158;28;20549;-69
2022/04/24 08:57:20;;;;;;;0.80;0.55;;;9.20;99.90;;;;;;5031357;28;20268;-69
2022/04/24 08:59:46;;;;;;;0.70;0.70;;;9.30;99.90;;;;;;5034114;28;20204;-75
2022/04/24 09:02:12;;;;;;;0.50;0.50;;;9.40;99.90;;;;;;5032601;28;20637;-72
2022/04/24 09:04:39;;;;;;;0.60;0.60;;;9.40;99.90;;;;;;5033531;28;20198;-70
2022/04/24 09:07:07;;;;;;;0.70;0.70;;;9.40;99.90;;;;;;5032512;28;20452;-67
2022/04/24 09:09:47;;;;;;;1.00;1.00;;;9.40;99.90;;;;;;5032672;28;20307;-69
2022/04/24 09:12:18;;;;;;;1.42;1.33;;;9.40;99.90;;;;;;5034330;28;20166;-69
2022/04/24 09:14:55;;;;;;;0.73;0.73;;;9.50;99.90;;;;;;5033635;28;20300;-66
2022/04/24 09:17:23;;;;;;;0.60;0.60;;;9.40;99.90;;;;;;5034151;28;20223;-65
2022/04/24 09:19:50;;;;;;;1.55;1.00;;;9.50;99.90;;;;;;5033820;28;20591;-67
2022/04/24 09:22:16;;;;;;;0.70;0.65;;;9.50;99.90;;;;;;5030630;28;20273;-69
2022/04/24 09:24:52;;;;;;;2.22;1.38;;;9.60;99.90;;;;;;5033979;28;20221;-70
2022/04/24 09:27:34;;;;;;;0.93;0.82;;;9.60;99.90;;;;;;5033837;28;20196;-71
2022/04/24 09:30:11;;;;;;;5.10;0.70;;;9.70;99.90;;;;;;5034617;28;20166;-72
2022/04/24 09:32:45;;;;;;;1.13;0.85;;;9.70;99.90;;;;;;5034198;28;20660;-73
2022/04/24 09:35:29;;;;;;;0.55;0.55;;;9.70;99.90;;;;;;5028197;28;20217;-70
2022/04/24 09:38:17;;;;;;;0.40;0.40;;;9.80;99.90;;;;;;5025424;28;20292;-70
2022/04/24 09:40:47;;;;;;;0.40;0.40;;;9.80;99.90;;;;;;5034727;28;20176;-69
2022/04/24 09:43:16;;;;;;;0.60;0.60;;;9.80;99.90;;;;;;5035353;28;20236;-69
2022/04/24 09:45:48;;;;;;;1.73;0.65;;;9.80;99.90;;;;;;5034705;28;20248;-67
2022/04/24 09:48:16;;;;;;;0.60;0.60;;;9.80;99.90;;;;;;5034448;28;20182;-65
2022/04/24 09:50:42;;;;;;;0.80;0.80;;;9.80;99.90;;;;;;5039977;28;20181;-72
2022/04/24 09:53:19;;;;;;;0.70;0.60;;;9.80;99.90;;;;;;5041101;28;20768;-74
2022/04/24 09:55:47;;;;;;;0.40;0.40;;;9.90;99.90;;;;;;5038084;28;20208;-73
2022/04/24 09:58:13;;;;;;;0.68;0.68;;;9.90;99.90;;;;;;5033355;28;20287;-70
2022/04/24 10:00:40;;;;;;;0.77;0.40;;;9.80;99.90;;;;;;5033232;28;20170;-72
2022/04/24 10:03:12;;;;;;;0.68;0.68;;;9.70;99.90;;;;;;5036201;28;20181;-75
2022/04/24 10:05:42;;;;;;;0.65;0.65;;;9.70;99.90;;;;;;5033696;28;20198;-75
2022/04/24 10:08:08;;;;;;;1.50;0.90;;;9.80;99.90;;;;;;5027214;28;20431;-68
2022/04/24 10:10:34;;;;;;;0.77;0.50;;;9.90;99.90;;;;;;5013728;28;20210;-68
2022/04/24 10:13:08;;;;;;;0.50;0.50;;;9.90;99.90;;;;;;5023037;28;20245;-68
2022/04/24 10:15:39;;;;;;;0.50;0.50;;;10.00;99.90;;;;;;5033246;28;20217;-69
2022/04/24 10:18:16;;;;;;;0.98;0.68;;;10.00;99.90;;;;;;5023615;28;20202;-67
2022/04/24 10:21:10;;;;;;;0.40;0.40;;;10.10;99.90;;;;;;5013581;28;20226;-68
2022/04/24 10:23:37;;;;;;;0.80;0.80;;;10.10;99.90;;;;;;5025923;28;20189;-70
2022/04/24 10:26:14;;;;;;;0.88;0.68;;;10.20;99.90;;;;;;5033273;28;20198;-68
2022/04/24 10:28:41;;;;;;;1.35;0.70;;;10.20;99.90;;;;;;5032837;28;20181;-67
2022/04/24 10:31:09;;;;;;;0.65;0.65;;;10.30;99.90;;;;;;5031521;28;20610;-66
2022/04/24 10:33:36;;;;;;;1.13;1.02;;;10.40;99.90;;;;;;5031380;28;20174;-68
2022/04/24 10:36:13;;;;;;;2.95;1.65;;;10.40;99.90;;;;;;5032481;28;20264;-67
2022/04/24 10:38:54;;;;;;;0.70;0.70;;;10.40;99.90;;;;;;5032645;28;20604;-66
2022/04/24 10:41:24;;;;;;;1.65;0.55;;;10.40;99.90;;;;;;5031455;28;20162;-67
2022/04/24 10:43:56;;;;;;;0.50;0.50;;;10.40;99.90;;;;;;5032880;28;20182;-67
2022/04/24 10:46:33;;;;;;;0.77;0.77;;;10.30;99.90;;;;;;5032935;28;20186;-69
2022/04/24 10:49:11;;;;;;;0.70;0.30;;;10.30;99.90;;;;;;5029518;28;20260;-66
2022/04/24 10:51:40;;;;;;;0.88;0.88;;;10.30;99.90;;;;;;5031061;28;20174;-67
2022/04/24 10:54:08;;;;;;;0.40;0.40;;;10.30;99.90;;;;;;5028139;28;20664;-66
2022/04/24 10:56:37;;;;;;;1.15;1.05;;;10.30;99.90;;;;;;5024531;28;20195;-67
2022/04/24 10:59:18;;;;;;;2.17;1.30;;;10.30;99.90;;;;;;5013011;28;20233;-66
2022/04/24 11:01:47;;;;;;;1.60;0.70;;;10.40;99.90;;;;;;5031765;28;20180;-66
2022/04/24 11:04:14;;;;;;;0.60;0.60;;;10.30;99.90;;;;;;5034711;28;20186;-66
2022/04/24 11:06:55;;;;;;;0.80;0.70;;;10.30;99.90;;;;;;5029126;28;20190;-65
2022/04/24 11:09:23;;;;;;;0.50;0.50;;;10.40;99.90;;;;;;5036303;28;20182;-66
2022/04/24 11:12:21;;;;;;;0.73;0.73;;;9.90;99.90;;;;;;5023187;28;20189;-65
2022/04/24 11:14:48;;;;;;;0.82;0.80;;;10.40;99.90;;;;;;5023062;28;20190;-66
2022/04/24 11:17:13;;;;;;;1.60;1.60;;;10.40;99.90;;;;;;5034480;28;20194;-67
2022/04/24 11:19:39;;;;;;;1.50;1.40;;;10.50;99.90;;;;;;5036254;28;20224;-67
2022/04/24 11:22:12;;;;;;;0.63;0.63;;;10.50;99.90;;;;;;5035049;28;20170;-65
2022/04/24 11:24:40;;;;;;;0.55;0.55;;;10.60;99.90;;;;;;5035604;28;20807;-66
2022/04/24 11:27:10;;;;;;;0.93;0.50;;;10.60;99.90;;;;;;5035884;28;20269;-66
2022/04/24 11:29:36;;;;;;;0.47;0.47;;;10.70;99.90;;;;;;5036532;28;20166;-65
2022/04/24 11:32:03;;;;;;;0.83;0.60;;;10.80;99.90;;;;;;5036352;28;20178;-65
2022/04/24 11:34:31;;;;;;;0.50;0.50;;;10.70;99.90;;;;;;5025850;28;20453;-68
2022/04/24 11:36:58;;;;;;;2.75;0.80;;;10.80;99.90;;;;;;5035571;28;20193;-65
2022/04/24 11:39:25;;;;;;;0.60;0.60;;;10.90;99.90;;;;;;5036589;28;20347;-66
2022/04/24 11:41:52;;;;;;;1.48;0.60;;;10.90;99.90;;;;;;5035488;28;20174;-66
2022/04/24 11:52:39;;;;;;;0.80;0.77;;;11.00;99.90;;;;;;5035404;28;20221;-68
2022/04/24 11:55:07;;;;;;;0.50;0.50;;;11.00;99.90;;;;;;5035201;28;20198;-67
2022/04/24 11:57:33;;;;;;;0.75;0.50;;;11.10;99.90;;;;;;5035568;28;20198;-69
2022/04/24 11:59:59;;;;;;;1.10;0.53;;;11.10;99.90;;;;;;5035770;28;20524;-67
2022/04/24 12:02:28;;;;;;;0.33;0.30;;;11.20;99.90;;;;;;5035576;28;20174;-67
2022/04/24 12:04:56;;;;;;;0.40;0.40;;;11.20;99.90;;;;;;5035040;28;20258;-68
2022/04/24 12:07:32;;;;;;;0.80;0.60;;;11.30;99.90;;;;;;5030023;28;20183;-69
2022/04/24 12:10:06;;;;;;;0.40;0.30;;;11.40;99.90;;;;;;5034339;28;20191;-67
2022/04/24 12:12:47;;;;;;;0.50;0.50;;;11.40;99.90;;;;;;5034471;28;20789;-70
2022/04/24 12:15:19;;;;;;;2.25;0.57;;;11.50;99.90;;;;;;5035684;28;20335;-69
2022/04/24 12:17:53;;;;;;;0.50;0.40;;;11.60;99.90;;;;;;5035852;28;20250;-68
2022/04/24 12:20:19;;;;;;;1.67;1.25;;;11.80;99.90;;;;;;5016117;28;20428;-68
2022/04/24 12:22:45;;;;;;;1.70;0.95;;;11.80;99.90;;;;;;5032112;28;20183;-67
2022/04/24 12:25:15;;;;;;;5.40;0.97;;;12.00;99.90;;;;;;5035202;28;20191;-65
2022/04/24 12:27:51;;;;;;;0.60;0.60;;;12.10;99.90;;;;;;5035402;28;20203;-68
2022/04/24 12:30:17;;;;;;;2.07;0.50;;;12.40;99.90;;;;;;5035671;28;20422;-69
2022/04/24 12:32:42;;;;;;;0.87;0.73;;;12.50;99.90;;;;;;5035126;28;20422;-67
2022/04/24 12:35:24;;;;;;;0.80;0.80;;;12.50;99.90;;;;;;5034687;28;20197;-66
2022/04/24 12:37:49;;;;;;;0.73;0.60;;;12.50;99.90;;;;;;5033734;28;20203;-68
2022/04/24 12:40:15;;;;;;;0.50;0.50;;;12.50;99.90;;;;;;5035651;28;20469;-68
2022/04/24 12:42:53;;;;;;;0.50;0.50;;;12.60;99.90;;;;;;5034826;28;20586;-67
2022/04/24 12:45:20;;;;;;;0.30;0.30;;;12.70;99.90;;;;;;5033942;28;20196;-69
2022/04/24 12:47:47;;;;;;;0.60;0.50;;;12.70;99.90;;;;;;5034906;28;20403;-69
2022/04/24 12:50:14;;;;;;;0.70;0.70;;;12.70;99.90;;;;;;5034623;28;20432;-68
2022/04/24 12:52:40;;;;;;;0.77;0.70;;;12.70;99.90;;;;;;5034725;28;20412;-68
2022/04/24 12:55:06;;;;;;;0.40;0.40;;;12.60;99.90;;;;;;5034527;28;20479;-70
2022/04/24 12:57:31;;;;;;;0.40;0.40;;;12.60;99.90;;;;;;5033328;28;20267;-70
2022/04/24 12:59:57;;;;;;;0.40;0.40;;;12.50;99.90;;;;;;5034989;28;20448;-70